X  CloseMetar Aviation Weather Data     FYOA Ondangwa

Temperature

27°C Temperature

0°C Dewpoint

17% Humidity



Wind

27 KM/H

17 MPH

 8 M/S

15 KTS



60°
East North
East
Current Conditions

Data Offline Data Offline
Pressure 1023.92 (hPa) - 30.24 (in)
Visibility 0 (mi) - 0 (km)
Airport
Airport-code FYOA

Location Ondangwa 595 (km)

Metar:
FYOA 041000Z AUTO 06015KT //// // ////// 27/00 Q1024

Time: 04-07-2020 12:00